Tweedale, United Kingdom
Current Conditions -  °F | °C
As of 11:50 AM on Monday 22 Dec 2014 (Local Time) from EGPH Reporting Station
Scattered Clouds Scattered Clouds  
Wind Chill: 39°   Ceiling: Unl
Heat Index: 46°   Visibility: 6mi
Dew Point: 41°   Wind: 20mph
Humidity: 81%   Direction: 250°WSW
Pressure: 29.62"   Gusts: NA
Location:  55.75°N, 3.25°W
Report Text: EGPH 221150Z 25017KT 9999 FEW018 SCT042 08/05 Q1003
Loading
Personal Weather Stations






























Interactive Weather Map New forecast layout! Learn more

10-Day Weather Forecast

Advertisements
Track Severe Weather on mobile